sensor_id;sensor_type;location;lat;lon;timestamp;pressure;altitude;pressure_sealevel;temperature;humidity
28004;BME280;15330;51.234;6.754;2024-03-02T00:00:15;99696.66;;;8.34;67.29
28004;BME280;15330;51.234;6.754;2024-03-02T00:02:41;99689.09;;;8.39;67.48
28004;BME280;15330;51.234;6.754;2024-03-02T00:05:07;99696.28;;;8.39;67.20
28004;BME280;15330;51.234;6.754;2024-03-02T00:07:33;99696.28;;;8.39;67.24
28004;BME280;15330;51.234;6.754;2024-03-02T00:09:59;99694.84;;;8.35;67.74
28004;BME280;15330;51.234;6.754;2024-03-02T00:12:25;99689.53;;;8.35;67.81
28004;BME280;15330;51.234;6.754;2024-03-02T00:14:51;99667.31;;;8.44;67.40
28004;BME280;15330;51.234;6.754;2024-03-02T00:17:25;99676.88;;;8.37;67.78
28004;BME280;15330;51.234;6.754;2024-03-02T00:19:51;99683.94;;;8.38;67.78
28004;BME280;15330;51.234;6.754;2024-03-02T00:22:17;99663.94;;;8.52;67.01
28004;BME280;15330;51.234;6.754;2024-03-02T00:24:43;99670.50;;;8.57;67.21
28004;BME280;15330;51.234;6.754;2024-03-02T00:27:12;99652.69;;;8.58;66.92
28004;BME280;15330;51.234;6.754;2024-03-02T00:29:40;99658.97;;;8.57;66.87
28004;BME280;15330;51.234;6.754;2024-03-02T00:32:12;99661.50;;;8.58;66.68
28004;BME280;15330;51.234;6.754;2024-03-02T00:34:39;99671.78;;;8.53;67.36
28004;BME280;15330;51.234;6.754;2024-03-02T00:37:05;99658.69;;;8.60;67.25
28004;BME280;15330;51.234;6.754;2024-03-02T00:39:30;99665.00;;;8.59;66.91
28004;BME280;15330;51.234;6.754;2024-03-02T00:41:55;99661.75;;;8.65;66.92
28004;BME280;15330;51.234;6.754;2024-03-02T00:44:25;99647.88;;;8.61;66.92
28004;BME280;15330;51.234;6.754;2024-03-02T00:46:51;99673.72;;;8.61;67.15
28004;BME280;15330;51.234;6.754;2024-03-02T00:49:22;99672.59;;;8.63;66.72
28004;BME280;15330;51.234;6.754;2024-03-02T00:51:49;99671.06;;;8.61;66.69
28004;BME280;15330;51.234;6.754;2024-03-02T00:54:19;99667.69;;;8.59;66.99
28004;BME280;15330;51.234;6.754;2024-03-02T00:56:45;99676.81;;;8.56;67.30
28004;BME280;15330;51.234;6.754;2024-03-02T00:59:12;99681.56;;;8.62;66.73
28004;BME280;15330;51.234;6.754;2024-03-02T01:01:37;99690.41;;;8.63;66.74
28004;BME280;15330;51.234;6.754;2024-03-02T01:04:03;99677.34;;;8.60;66.96
28004;BME280;15330;51.234;6.754;2024-03-02T01:06:29;99682.31;;;8.55;67.03
28004;BME280;15330;51.234;6.754;2024-03-02T01:08:55;99682.97;;;8.57;67.26
28004;BME280;15330;51.234;6.754;2024-03-02T01:11:20;99686.66;;;8.56;67.11
28004;BME280;15330;51.234;6.754;2024-03-02T01:13:49;99682.31;;;8.55;67.31
28004;BME280;15330;51.234;6.754;2024-03-02T01:16:14;99694.66;;;8.56;67.40
28004;BME280;15330;51.234;6.754;2024-03-02T01:18:41;99679.94;;;8.52;67.40
28004;BME280;15330;51.234;6.754;2024-03-02T01:21:07;99676.72;;;8.48;67.70
28004;BME280;15330;51.234;6.754;2024-03-02T01:23:32;99690.91;;;8.49;67.38
28004;BME280;15330;51.234;6.754;2024-03-02T01:25:58;99677.69;;;8.47;67.55
28004;BME280;15330;51.234;6.754;2024-03-02T01:28:23;99669.69;;;8.47;67.54
28004;BME280;15330;51.234;6.754;2024-03-02T01:30:49;99665.22;;;8.48;67.38
28004;BME280;15330;51.234;6.754;2024-03-02T01:33:16;99681.78;;;8.51;67.12
28004;BME280;15330;51.234;6.754;2024-03-02T01:35:41;99671.22;;;8.50;67.04
28004;BME280;15330;51.234;6.754;2024-03-02T01:38:06;99673.75;;;8.51;67.07
28004;BME280;15330;51.234;6.754;2024-03-02T01:40:34;99664.75;;;8.52;66.91
28004;BME280;15330;51.234;6.754;2024-03-02T01:42:59;99656.31;;;8.57;66.77
28004;BME280;15330;51.234;6.754;2024-03-02T01:45:25;99658.00;;;8.58;66.72
28004;BME280;15330;51.234;6.754;2024-03-02T01:47:50;99658.56;;;8.61;66.50
28004;BME280;15330;51.234;6.754;2024-03-02T01:50:16;99663.63;;;8.55;66.75
28004;BME280;15330;51.234;6.754;2024-03-02T01:52:41;99666.97;;;8.57;66.21
28004;BME280;15330;51.234;6.754;2024-03-02T01:55:09;99658.00;;;8.58;66.21
28004;BME280;15330;51.234;6.754;2024-03-02T01:57:34;99658.56;;;8.61;66.36
28004;BME280;15330;51.234;6.754;2024-03-02T02:00:00;99665.00;;;8.59;66.36
28004;BME280;15330;51.234;6.754;2024-03-02T02:02:26;99669.06;;;8.63;66.26
28004;BME280;15330;51.234;6.754;2024-03-02T02:04:51;99666.00;;;8.58;66.40
28004;BME280;15330;51.234;6.754;2024-03-02T02:07:17;99674.69;;;8.60;66.32
28004;BME280;15330;51.234;6.754;2024-03-02T02:09:42;99675.41;;;8.62;66.30
28004;BME280;15330;51.234;6.754;2024-03-02T02:12:09;99669.75;;;8.65;66.29
28004;BME280;15330;51.234;6.754;2024-03-02T02:14:35;99668.69;;;8.58;66.48
28004;BME280;15330;51.234;6.754;2024-03-02T02:17:00;99659.97;;;8.56;66.40
28004;BME280;15330;51.234;6.754;2024-03-02T02:19:26;99676.69;;;8.58;66.10
28004;BME280;15330;51.234;6.754;2024-03-02T02:21:51;99673.31;;;8.56;66.85
28004;BME280;15330;51.234;6.754;2024-03-02T02:24:17;99672.31;;;8.57;66.51
28004;BME280;15330;51.234;6.754;2024-03-02T02:26:42;99680.03;;;8.60;66.51
28004;BME280;15330;51.234;6.754;2024-03-02T02:29:07;99678.22;;;8.60;66.46
28004;BME280;15330;51.234;6.754;2024-03-02T02:31:39;99679.91;;;8.61;66.78
28004;BME280;15330;51.234;6.754;2024-03-02T02:34:05;99683.25;;;8.63;66.33
28004;BME280;15330;51.234;6.754;2024-03-02T02:36:32;99671.72;;;8.63;66.37
28004;BME280;15330;51.234;6.754;2024-03-02T02:38:58;99686.06;;;8.62;66.66
28004;BME280;15330;51.234;6.754;2024-03-02T02:41:25;99670.06;;;8.62;66.71
28004;BME280;15330;51.234;6.754;2024-03-02T02:43:50;99665.56;;;8.62;66.47
28004;BME280;15330;51.234;6.754;2024-03-02T02:46:16;99664.25;;;8.67;66.35
28004;BME280;15330;51.234;6.754;2024-03-02T02:48:41;99658.69;;;8.60;66.44
28004;BME280;15330;51.234;6.754;2024-03-02T02:51:07;99662.50;;;8.57;66.63
28004;BME280;15330;51.234;6.754;2024-03-02T02:53:32;99661.06;;;8.63;66.61
28004;BME280;15330;51.234;6.754;2024-03-02T02:55:57;99659.69;;;8.59;66.93
28004;BME280;15330;51.234;6.754;2024-03-02T02:58:23;99657.25;;;8.66;66.75
28004;BME280;15330;51.234;6.754;2024-03-02T03:00:48;99660.69;;;8.58;66.74
28004;BME280;15330;51.234;6.754;2024-03-02T03:03:14;99658.59;;;8.52;67.29
28004;BME280;15330;51.234;6.754;2024-03-02T03:05:39;99659.44;;;8.52;67.09
28004;BME280;15330;51.234;6.754;2024-03-02T03:08:05;99665.31;;;8.56;67.11
28004;BME280;15330;51.234;6.754;2024-03-02T03:10:30;99656.31;;;8.57;67.11
28004;BME280;15330;51.234;6.754;2024-03-02T03:12:56;99668.38;;;8.61;66.88
28004;BME280;15330;51.234;6.754;2024-03-02T03:15:21;99670.34;;;8.59;66.81
28004;BME280;15330;51.234;6.754;2024-03-02T03:17:47;99679.47;;;8.56;67.27
28004;BME280;15330;51.234;6.754;2024-03-02T03:20:12;99689.28;;;8.66;66.98
28004;BME280;15330;51.234;6.754;2024-03-02T03:22:40;99686.19;;;8.70;67.25
28004;BME280;15330;51.234;6.754;2024-03-02T03:25:06;99693.31;;;8.70;67.23
28004;BME280;15330;51.234;6.754;2024-03-02T03:27:33;99681.84;;;8.59;67.57
28004;BME280;15330;51.234;6.754;2024-03-02T03:29:58;99686.66;;;8.56;67.55
28004;BME280;15330;51.234;6.754;2024-03-02T03:32:24;99686.66;;;8.56;67.47
28004;BME280;15330;51.234;6.754;2024-03-02T03:34:50;99686.34;;;8.59;67.45
28004;BME280;15330;51.234;6.754;2024-03-02T03:37:15;99688.19;;;8.58;67.70
28004;BME280;15330;51.234;6.754;2024-03-02T03:39:40;99681.56;;;8.62;67.59
28004;BME280;15330;51.234;6.754;2024-03-02T03:42:06;99682.97;;;8.57;67.61
28004;BME280;15330;51.234;6.754;2024-03-02T03:44:31;99688.31;;;8.57;67.26
28004;BME280;15330;51.234;6.754;2024-03-02T03:46:57;99691.69;;;8.59;67.36
28004;BME280;15330;51.234;6.754;2024-03-02T03:49:22;99693.66;;;8.57;67.49
28004;BME280;15330;51.234;6.754;2024-03-02T03:51:48;99689.44;;;8.64;67.10
28004;BME280;15330;51.234;6.754;2024-03-02T03:54:13;99684.19;;;8.72;66.70
28004;BME280;15330;51.234;6.754;2024-03-02T03:56:38;99682.22;;;8.74;66.50
28004;BME280;15330;51.234;6.754;2024-03-02T03:59:04;99687.84;;;8.71;66.70
28004;BME280;15330;51.234;6.754;2024-03-02T04:01:30;99681.81;;;8.69;66.52
28004;BME280;15330;51.234;6.754;2024-03-02T04:03:56;99682.69;;;8.60;66.84
28004;BME280;15330;51.234;6.754;2024-03-02T04:06:22;99681.81;;;8.69;66.77
28004;BME280;15330;51.234;6.754;2024-03-02T04:08:48;99689.13;;;8.67;66.63
28004;BME280;15330;51.234;6.754;2024-03-02T04:11:13;99697.03;;;8.59;66.93
28004;BME280;15330;51.234;6.754;2024-03-02T04:13:38;99693.06;;;8.63;66.93
28004;BME280;15330;51.234;6.754;2024-03-02T04:16:04;99692.81;;;8.56;67.22
28004;BME280;15330;51.234;6.754;2024-03-02T04:18:30;99678.41;;;8.49;67.62
28004;BME280;15330;51.234;6.754;2024-03-02T04:20:57;99680.66;;;8.44;67.80
28004;BME280;15330;51.234;6.754;2024-03-02T04:23:24;99685.44;;;8.40;68.07
28004;BME280;15330;51.234;6.754;2024-03-02T04:25:50;99688.22;;;8.49;68.15
28004;BME280;15330;51.234;6.754;2024-03-02T04:28:15;99693.69;;;8.47;67.85
28004;BME280;15330;51.234;6.754;2024-03-02T04:30:41;99688.28;;;8.39;67.90
28004;BME280;15330;51.234;6.754;2024-03-02T04:33:07;99693.16;;;8.34;68.20
28004;BME280;15330;51.234;6.754;2024-03-02T04:35:35;99703.00;;;8.33;68.50
28004;BME280;15330;51.234;6.754;2024-03-02T04:38:01;99699.47;;;8.33;68.25
28004;BME280;15330;51.234;6.754;2024-03-02T04:40:26;99695.44;;;8.38;68.02
28004;BME280;15330;51.234;6.754;2024-03-02T04:42:51;99710.00;;;8.34;68.00
28004;BME280;15330;51.234;6.754;2024-03-02T04:45:17;99697.25;;;8.28;68.21
28004;BME280;15330;51.234;6.754;2024-03-02T04:47:42;99691.50;;;8.23;68.56
28004;BME280;15330;51.234;6.754;2024-03-02T04:50:08;99684.81;;;8.19;68.69
28004;BME280;15330;51.234;6.754;2024-03-02T04:52:33;99693.47;;;8.21;68.82
28004;BME280;15330;51.234;6.754;2024-03-02T04:54:58;99700.78;;;8.29;68.19
28004;BME280;15330;51.234;6.754;2024-03-02T04:57:42;99690.38;;;8.26;68.33
28004;BME280;15330;51.234;6.754;2024-03-02T05:00:09;99686.75;;;8.17;68.63
28004;BME280;15330;51.234;6.754;2024-03-02T05:02:35;99689.03;;;8.02;69.19
28004;BME280;15330;51.234;6.754;2024-03-02T05:05:00;99696.31;;;8.10;68.79
28004;BME280;15330;51.234;6.754;2024-03-02T05:07:26;99693.22;;;8.05;69.21
28004;BME280;15330;51.234;6.754;2024-03-02T05:09:51;99705.59;;;8.06;69.55
28004;BME280;15330;51.234;6.754;2024-03-02T05:12:16;99701.66;;;8.10;68.94
28004;BME280;15330;51.234;6.754;2024-03-02T05:14:42;99706.97;;;8.10;69.56
28004;BME280;15330;51.234;6.754;2024-03-02T05:17:07;99704.72;;;8.15;68.77
28004;BME280;15330;51.234;6.754;2024-03-02T05:19:33;99706.13;;;8.19;68.90
28004;BME280;15330;51.234;6.754;2024-03-02T05:21:58;99714.56;;;8.05;68.93
28004;BME280;15330;51.234;6.754;2024-03-02T05:24:24;99705.56;;;8.15;69.02
28004;BME280;15330;51.234;6.754;2024-03-02T05:26:52;99712.44;;;8.18;68.58
28004;BME280;15330;51.234;6.754;2024-03-02T05:29:17;99720.44;;;8.08;69.43
28004;BME280;15330;51.234;6.754;2024-03-02T05:31:43;99727.88;;;8.05;69.63
28004;BME280;15330;51.234;6.754;2024-03-02T05:34:09;99724.25;;;8.06;69.63
28004;BME280;15330;51.234;6.754;2024-03-02T05:36:34;99720.16;;;8.02;69.54
28004;BME280;15330;51.234;6.754;2024-03-02T05:39:00;99722.56;;;8.05;69.65
28004;BME280;15330;51.234;6.754;2024-03-02T05:41:25;99710.63;;;7.99;69.89
28004;BME280;15330;51.234;6.754;2024-03-02T05:43:51;99725.66;;;8.00;69.53
28004;BME280;15330;51.234;6.754;2024-03-02T05:46:16;99706.75;;;7.84;70.21
28004;BME280;15330;51.234;6.754;2024-03-02T05:48:41;99719.34;;;7.91;70.30
28004;BME280;15330;51.234;6.754;2024-03-02T05:51:07;99723.56;;;7.84;70.26
28004;BME280;15330;51.234;6.754;2024-03-02T05:53:32;99721.31;;;7.89;70.17
28004;BME280;15330;51.234;6.754;2024-03-02T05:55:57;99732.25;;;7.86;70.25
28004;BME280;15330;51.234;6.754;2024-03-02T05:58:23;99742.22;;;7.94;70.12
28004;BME280;15330;51.234;6.754;2024-03-02T06:01:07;99724.97;;;7.88;70.41
28004;BME280;15330;51.234;6.754;2024-03-02T06:03:32;99732.25;;;7.86;70.45
28004;BME280;15330;51.234;6.754;2024-03-02T06:05:58;99735.34;;;7.82;70.90
28004;BME280;15330;51.234;6.754;2024-03-02T06:08:23;99736.75;;;7.86;70.38
28004;BME280;15330;51.234;6.754;2024-03-02T06:10:49;99742.06;;;7.76;70.36
28004;BME280;15330;51.234;6.754;2024-03-02T06:13:14;99747.41;;;7.76;70.81
28004;BME280;15330;51.234;6.754;2024-03-02T06:15:40;99735.34;;;7.72;71.03
28004;BME280;15330;51.234;6.754;2024-03-02T06:18:05;99732.13;;;7.68;71.14
28004;BME280;15330;51.234;6.754;2024-03-02T06:20:33;99738.16;;;7.80;70.23
28004;BME280;15330;51.234;6.754;2024-03-02T06:22:58;99757.22;;;7.85;70.10
28004;BME280;15330;51.234;6.754;2024-03-02T06:25:23;99755.94;;;7.99;69.57
28004;BME280;15330;51.234;6.754;2024-03-02T06:27:49;99754.16;;;7.90;70.05
28004;BME280;15330;51.234;6.754;2024-03-02T06:30:14;99752.88;;;8.04;70.07
28004;BME280;15330;51.234;6.754;2024-03-02T06:32:40;99755.25;;;8.07;69.47
28004;BME280;15330;51.234;6.754;2024-03-02T06:35:08;99760.88;;;8.04;70.13
28004;BME280;15330;51.234;6.754;2024-03-02T06:37:36;99761.69;;;8.04;69.51
28004;BME280;15330;51.234;6.754;2024-03-02T06:40:02;99770.69;;;8.03;69.34
28004;BME280;15330;51.234;6.754;2024-03-02T06:42:27;99775.47;;;8.09;69.04
28004;BME280;15330;51.234;6.754;2024-03-02T06:44:58;99785.94;;;8.21;69.03
28004;BME280;15330;51.234;6.754;2024-03-02T06:47:23;99775.97;;;8.32;68.16
28004;BME280;15330;51.234;6.754;2024-03-02T06:49:51;99774.28;;;8.51;67.99
28004;BME280;15330;51.234;6.754;2024-03-02T06:52:16;99776.38;;;8.37;68.00
28004;BME280;15330;51.234;6.754;2024-03-02T06:54:42;99771.44;;;8.62;67.02
28004;BME280;15330;51.234;6.754;2024-03-02T06:57:08;99771.00;;;9.04;65.71
28004;BME280;15330;51.234;6.754;2024-03-02T06:59:33;99777.00;;;8.41;67.94
28004;BME280;15330;51.234;6.754;2024-03-02T07:01:59;99786.47;;;8.53;67.65
28004;BME280;15330;51.234;6.754;2024-03-02T07:04:25;99773.06;;;8.73;67.14
28004;BME280;15330;51.234;6.754;2024-03-02T07:06:50;99782.09;;;8.62;67.30
28004;BME280;15330;51.234;6.754;2024-03-02T07:09:17;99785.59;;;8.72;67.23
28004;BME280;15330;51.234;6.754;2024-03-02T07:11:42;99796.56;;;9.06;65.82
28004;BME280;15330;51.234;6.754;2024-03-02T07:14:08;99792.09;;;8.97;65.75
28004;BME280;15330;51.234;6.754;2024-03-02T07:16:33;99797.50;;;8.78;66.70
28004;BME280;15330;51.234;6.754;2024-03-02T07:19:00;99809.31;;;8.75;66.37
28004;BME280;15330;51.234;6.754;2024-03-02T07:21:27;99803.94;;;9.22;65.94
28004;BME280;15330;51.234;6.754;2024-03-02T07:23:53;99796.28;;;13.02;52.96
28004;BME280;15330;51.234;6.754;2024-03-02T07:26:19;99803.34;;;11.56;56.20
28004;BME280;15330;51.234;6.754;2024-03-02T07:28:48;99808.97;;;10.24;61.81
28004;BME280;15330;51.234;6.754;2024-03-02T07:31:14;99806.81;;;12.40;54.33
28004;BME280;15330;51.234;6.754;2024-03-02T07:33:39;99810.41;;;11.65;56.05
28004;BME280;15330;51.234;6.754;2024-03-02T07:36:05;99797.59;;;12.34;54.39
28004;BME280;15330;51.234;6.754;2024-03-02T07:38:31;99806.16;;;11.04;58.37
28004;BME280;15330;51.234;6.754;2024-03-02T07:40:57;99805.97;;;10.71;58.92
28004;BME280;15330;51.234;6.754;2024-03-02T07:43:23;99790.31;;;12.76;53.37
28004;BME280;15330;51.234;6.754;2024-03-02T07:45:49;99794.53;;;12.70;53.96
28004;BME280;15330;51.234;6.754;2024-03-02T07:48:15;99811.81;;;12.68;52.80
28004;BME280;15330;51.234;6.754;2024-03-02T07:50:40;99815.41;;;10.76;58.29
28004;BME280;15330;51.234;6.754;2024-03-02T07:53:06;99817.13;;;10.23;60.46
28004;BME280;15330;51.234;6.754;2024-03-02T07:55:33;99837.34;;;10.35;60.61
28004;BME280;15330;51.234;6.754;2024-03-02T07:58:00;99839.16;;;11.05;59.41
28004;BME280;15330;51.234;6.754;2024-03-02T08:00:25;99837.94;;;11.84;57.27
28004;BME280;15330;51.234;6.754;2024-03-02T08:02:52;99837.06;;;13.62;51.34
28004;BME280;15330;51.234;6.754;2024-03-02T08:05:18;99844.84;;;13.01;51.88
28004;BME280;15330;51.234;6.754;2024-03-02T08:07:46;99839.91;;;13.29;51.91
28004;BME280;15330;51.234;6.754;2024-03-02T08:10:12;99838.97;;;12.97;52.93
28004;BME280;15330;51.234;6.754;2024-03-02T08:12:38;99832.50;;;14.62;48.32
28004;BME280;15330;51.234;6.754;2024-03-02T08:15:03;99839.50;;;14.49;49.00
28004;BME280;15330;51.234;6.754;2024-03-02T08:17:29;99849.97;;;13.97;49.59
28004;BME280;15330;51.234;6.754;2024-03-02T08:19:55;99843.56;;;17.00;43.48
28004;BME280;15330;51.234;6.754;2024-03-02T08:22:22;99842.94;;;13.96;49.30
28004;BME280;15330;51.234;6.754;2024-03-02T08:24:47;99847.25;;;12.63;52.86
28004;BME280;15330;51.234;6.754;2024-03-02T08:27:12;99836.66;;;14.27;50.01
28004;BME280;15330;51.234;6.754;2024-03-02T08:29:38;99834.84;;;19.98;37.39
28004;BME280;15330;51.234;6.754;2024-03-02T08:32:05;99845.47;;;16.28;43.91
28004;BME280;15330;51.234;6.754;2024-03-02T08:34:31;99833.13;;;16.41;43.64
28004;BME280;15330;51.234;6.754;2024-03-02T08:36:56;99840.59;;;14.62;47.30
28004;BME280;15330;51.234;6.754;2024-03-02T08:39:22;99826.34;;;14.54;48.36
28004;BME280;15330;51.234;6.754;2024-03-02T08:41:47;99818.34;;;16.65;43.91
28004;BME280;15330;51.234;6.754;2024-03-02T08:44:13;99815.44;;;16.94;43.11
28004;BME280;15330;51.234;6.754;2024-03-02T08:46:39;99813.06;;;18.15;40.20
28004;BME280;15330;51.234;6.754;2024-03-02T08:49:06;99817.13;;;19.89;36.95
28004;BME280;15330;51.234;6.754;2024-03-02T08:51:31;99832.69;;;17.63;39.87
28004;BME280;15330;51.234;6.754;2024-03-02T08:53:57;99838.44;;;22.28;33.51
28004;BME280;15330;51.234;6.754;2024-03-02T08:56:25;99832.78;;;22.53;31.91
28004;BME280;15330;51.234;6.754;2024-03-02T08:58:51;99845.09;;;23.09;29.76
28004;BME280;15330;51.234;6.754;2024-03-02T09:01:17;99843.44;;;23.72;29.33
28004;BME280;15330;51.234;6.754;2024-03-02T09:03:43;99857.84;;;21.53;32.60
28004;BME280;15330;51.234;6.754;2024-03-02T09:06:10;99852.59;;;20.89;33.28
28004;BME280;15330;51.234;6.754;2024-03-02T09:08:35;99848.56;;;22.09;31.77
28004;BME280;15330;51.234;6.754;2024-03-02T09:11:02;99843.25;;;21.47;32.43
28004;BME280;15330;51.234;6.754;2024-03-02T09:13:28;99860.19;;;21.68;32.16
28004;BME280;15330;51.234;6.754;2024-03-02T09:15:54;99844.47;;;21.08;33.56
28004;BME280;15330;51.234;6.754;2024-03-02T09:18:19;99848.13;;;22.77;31.07
28004;BME280;15330;51.234;6.754;2024-03-02T09:20:45;99849.06;;;20.64;33.05
28004;BME280;15330;51.234;6.754;2024-03-02T09:23:11;99833.59;;;22.12;31.65
28004;BME280;15330;51.234;6.754;2024-03-02T09:25:36;99834.25;;;22.91;30.80
28004;BME280;15330;51.234;6.754;2024-03-02T09:28:02;99838.56;;;23.10;29.95
28004;BME280;15330;51.234;6.754;2024-03-02T09:30:28;99837.25;;;23.01;30.27
28004;BME280;15330;51.234;6.754;2024-03-02T09:32:53;99838.06;;;24.63;27.83
28004;BME280;15330;51.234;6.754;2024-03-02T09:35:19;99837.50;;;22.34;30.16
28004;BME280;15330;51.234;6.754;2024-03-02T09:37:45;99823.16;;;22.39;30.56
28004;BME280;15330;51.234;6.754;2024-03-02T09:40:11;99835.19;;;20.72;32.25
28004;BME280;15330;51.234;6.754;2024-03-02T09:42:37;99843.47;;;20.84;33.69
28004;BME280;15330;51.234;6.754;2024-03-02T09:45:03;99825.97;;;20.73;32.76
28004;BME280;15330;51.234;6.754;2024-03-02T09:47:28;99824.09;;;22.32;30.64
28004;BME280;15330;51.234;6.754;2024-03-02T09:49:54;99838.63;;;20.61;33.30
28004;BME280;15330;51.234;6.754;2024-03-02T09:52:22;99827.72;;;19.59;35.25
28004;BME280;15330;51.234;6.754;2024-03-02T09:54:48;99831.50;;;19.96;35.30
28004;BME280;15330;51.234;6.754;2024-03-02T09:57:14;99829.53;;;21.54;32.04
28004;BME280;15330;51.234;6.754;2024-03-02T09:59:39;99838.34;;;19.61;33.75
28004;BME280;15330;51.234;6.754;2024-03-02T10:02:05;99833.69;;;18.23;37.34
28004;BME280;15330;51.234;6.754;2024-03-02T10:04:32;99824.69;;;17.07;39.64
28004;BME280;15330;51.234;6.754;2024-03-02T10:09:39;99822.91;;;16.64;40.84
28004;BME280;15330;51.234;6.754;2024-03-02T10:12:06;99827.56;;;14.51;46.03
28004;BME280;15330;51.234;6.754;2024-03-02T10:14:31;99822.03;;;21.31;33.39
28004;BME280;15330;51.234;6.754;2024-03-02T10:17:02;99836.72;;;20.68;32.62
28004;BME280;15330;51.234;6.754;2024-03-02T10:19:28;99832.69;;;21.88;31.36
28004;BME280;15330;51.234;6.754;2024-03-02T10:21:58;99837.09;;;20.40;33.87
28004;BME280;15330;51.234;6.754;2024-03-02T10:24:24;99841.63;;;21.76;31.37
28004;BME280;15330;51.234;6.754;2024-03-02T10:26:51;99846.72;;;23.34;28.93
28004;BME280;15330;51.234;6.754;2024-03-02T10:29:17;99844.41;;;23.66;27.98
28004;BME280;15330;51.234;6.754;2024-03-02T10:31:44;99832.72;;;22.95;29.20
28004;BME280;15330;51.234;6.754;2024-03-02T10:34:11;99847.03;;;20.59;32.76
28004;BME280;15330;51.234;6.754;2024-03-02T10:36:41;99823.88;;;22.46;30.16
28004;BME280;15330;51.234;6.754;2024-03-02T10:39:07;99814.66;;;23.41;28.34
28004;BME280;15330;51.234;6.754;2024-03-02T10:41:34;99810.38;;;22.51;29.13
28004;BME280;15330;51.234;6.754;2024-03-02T10:44:09;99822.03;;;19.74;34.29
28004;BME280;15330;51.234;6.754;2024-03-02T10:46:37;99808.81;;;21.34;31.06
28004;BME280;15330;51.234;6.754;2024-03-02T10:49:04;99818.56;;;20.62;32.57
28004;BME280;15330;51.234;6.754;2024-03-02T10:51:32;99824.88;;;20.99;32.92
28004;BME280;15330;51.234;6.754;2024-03-02T10:53:58;99809.56;;;21.23;32.04
28004;BME280;15330;51.234;6.754;2024-03-02T10:56:30;99804.81;;;21.74;30.63
28004;BME280;15330;51.234;6.754;2024-03-02T10:59:27;99793.53;;;20.97;32.73
28004;BME280;15330;51.234;6.754;2024-03-02T11:01:57;99790.38;;;21.55;32.00
28004;BME280;15330;51.234;6.754;2024-03-02T11:04:27;99781.19;;;20.19;32.91
28004;BME280;15330;51.234;6.754;2024-03-02T11:06:59;99787.78;;;20.05;34.35
28004;BME280;15330;51.234;6.754;2024-03-02T11:09:27;99788.25;;;19.57;35.12
28004;BME280;15330;51.234;6.754;2024-03-02T11:12:03;99772.94;;;21.74;31.36
28004;BME280;15330;51.234;6.754;2024-03-02T11:14:31;99779.75;;;21.28;32.67
28004;BME280;15330;51.234;6.754;2024-03-02T11:17:01;99786.47;;;17.16;38.37
28004;BME280;15330;51.234;6.754;2024-03-02T11:19:29;99781.06;;;19.24;35.73
28004;BME280;15330;51.234;6.754;2024-03-02T11:21:56;99779.94;;;18.27;38.01
28004;BME280;15330;51.234;6.754;2024-03-02T11:26:52;99785.75;;;21.00;33.23
28004;BME280;15330;51.234;6.754;2024-03-02T11:32:18;99772.03;;;16.74;41.42
28004;BME280;15330;51.234;6.754;2024-03-02T11:34:47;99784.63;;;15.68;44.32
28004;BME280;15330;51.234;6.754;2024-03-02T11:37:15;99783.00;;;14.78;46.70
28004;BME280;15330;51.234;6.754;2024-03-02T11:39:43;99782.19;;;14.78;46.95
28004;BME280;15330;51.234;6.754;2024-03-02T11:42:09;99778.59;;;15.36;45.27
28004;BME280;15330;51.234;6.754;2024-03-02T11:44:36;99764.94;;;16.17;43.96
28004;BME280;15330;51.234;6.754;2024-03-02T11:47:06;99763.78;;;16.26;42.78
28004;BME280;15330;51.234;6.754;2024-03-02T11:49:51;99774.78;;;15.82;43.98
28004;BME280;15330;51.234;6.754;2024-03-02T11:52:20;99765.16;;;15.58;44.48
28004;BME280;15330;51.234;6.754;2024-03-02T11:54:46;99772.88;;;15.10;44.97
28004;BME280;15330;51.234;6.754;2024-03-02T11:57:20;99758.41;;;15.83;43.95
28004;BME280;15330;51.234;6.754;2024-03-02T11:59:48;99753.66;;;15.49;44.51
28004;BME280;15330;51.234;6.754;2024-03-02T12:02:18;99750.28;;;15.26;45.59
28004;BME280;15330;51.234;6.754;2024-03-02T12:04:45;99752.09;;;15.98;43.76
28004;BME280;15330;51.234;6.754;2024-03-02T12:07:11;99752.84;;;15.34;44.80
28004;BME280;15330;51.234;6.754;2024-03-02T12:09:38;99753.75;;;14.75;46.53
28004;BME280;15330;51.234;6.754;2024-03-02T12:12:08;99747.72;;;14.35;47.00
28004;BME280;15330;51.234;6.754;2024-03-02T12:14:36;99744.84;;;14.37;47.37
28004;BME280;15330;51.234;6.754;2024-03-02T12:17:02;99736.63;;;14.53;47.25
28004;BME280;15330;51.234;6.754;2024-03-02T12:19:28;99738.94;;;14.18;47.85
28004;BME280;15330;51.234;6.754;2024-03-02T12:21:57;99734.53;;;14.40;47.84
28004;BME280;15330;51.234;6.754;2024-03-02T12:24:26;99727.66;;;14.61;47.28
28004;BME280;15330;51.234;6.754;2024-03-02T12:26:52;99716.41;;;14.34;47.54
28004;BME280;15330;51.234;6.754;2024-03-02T12:29:19;99715.94;;;14.16;47.80
28004;BME280;15330;51.234;6.754;2024-03-02T12:31:48;99719.09;;;14.19;47.33
28004;BME280;15330;51.234;6.754;2024-03-02T12:34:15;99717.22;;;13.82;48.16
28004;BME280;15330;51.234;6.754;2024-03-02T12:36:41;99712.09;;;13.72;48.46
28004;BME280;15330;51.234;6.754;2024-03-02T12:39:09;99714.72;;;13.81;48.50
28004;BME280;15330;51.234;6.754;2024-03-02T12:41:38;99711.50;;;13.85;48.90
28004;BME280;15330;51.234;6.754;2024-03-02T12:44:06;99705.19;;;14.16;48.21
28004;BME280;15330;51.234;6.754;2024-03-02T12:46:32;99707.31;;;14.20;48.17
28004;BME280;15330;51.234;6.754;2024-03-02T12:48:58;99701.16;;;13.97;49.19
28004;BME280;15330;51.234;6.754;2024-03-02T12:51:30;99700.16;;;13.90;49.19
28004;BME280;15330;51.234;6.754;2024-03-02T12:53:56;99685.38;;;13.71;49.91
28004;BME280;15330;51.234;6.754;2024-03-02T12:56:22;99693.00;;;13.82;49.60
28004;BME280;15330;51.234;6.754;2024-03-02T12:58:48;99688.56;;;13.51;50.12
28004;BME280;15330;51.234;6.754;2024-03-02T13:01:18;99680.00;;;13.48;50.59
28004;BME280;15330;51.234;6.754;2024-03-02T13:03:44;99688.47;;;13.83;49.89
28004;BME280;15330;51.234;6.754;2024-03-02T13:06:09;99699.84;;;13.47;50.40
28004;BME280;15330;51.234;6.754;2024-03-02T13:08:35;99695.78;;;13.74;50.34
28004;BME280;15330;51.234;6.754;2024-03-02T13:11:01;99693.44;;;13.48;51.19